Time;durP1;ratioP1;P1;durP2;ratioP2;P2;SDS_P1;SDS_P2;PMS_P1;PMS_P2;Temp;Humidity;BMP_temperature;BMP_pressure;BME280_temperature;BME280_humidity;BME280_pressure;Samples;Min_cycle;Max_cycle;Signal;HPM_P1;HPM_P2
2023/05/14 00:01:27;;;;;;;6.40;4.82;;;;;;;;;;5092495;28;20031;-64
2023/05/14 00:03:54;;;;;;;7.80;4.78;;;;;;;;;;5092829;28;20031;-64
2023/05/14 00:06:21;;;;;;;8.48;5.45;;;;;;;;;;5092756;28;20440;-64
2023/05/14 00:08:47;;;;;;;7.28;4.97;;;;;;;;;;5088157;28;20467;-64
2023/05/14 00:11:14;;;;;;;10.23;6.30;;;;;;;;;;5087809;28;20099;-64
2023/05/14 00:13:41;;;;;;;10.60;5.97;;;;;;;;;;5087797;28;20073;-64
2023/05/14 00:16:08;;;;;;;11.13;5.47;;;;;;;;;;5087660;28;20027;-64
2023/05/14 00:18:34;;;;;;;8.38;5.88;;;;;;;;;;5090258;28;20051;-64
2023/05/14 00:21:01;;;;;;;6.70;5.28;;;;;;;;;;5092339;28;20031;-64
2023/05/14 00:23:28;;;;;;;7.30;5.20;;;;;;;;;;5092555;28;20478;-64
2023/05/14 00:25:55;;;;;;;13.13;7.07;;;;;;;;;;5092583;28;20029;-64
2023/05/14 00:28:22;;;;;;;10.95;6.20;;;;;;;;;;5092626;28;20024;-64
2023/05/14 00:30:48;;;;;;;9.13;6.03;;;;;;;;;;5088960;28;20030;-64
2023/05/14 00:33:15;;;;;;;11.18;5.78;;;;;;;;;;5087449;28;20032;-64
2023/05/14 00:35:42;;;;;;;7.97;5.07;;;;;;;;;;5087538;28;20035;-64
2023/05/14 00:38:15;;;;;;;7.22;5.10;;;;;;;;;;5087019;28;20020;-64
2023/05/14 00:40:44;;;;;;;7.30;4.97;;;;;;;;;;5090220;28;20036;-64
2023/05/14 00:43:11;;;;;;;11.40;5.13;;;;;;;;;;5092630;28;20024;-64
2023/05/14 00:45:38;;;;;;;13.20;5.50;;;;;;;;;;5092352;28;20124;-64
2023/05/14 00:48:05;;;;;;;7.80;4.70;;;;;;;;;;5092337;28;20020;-64
2023/05/14 00:50:33;;;;;;;7.40;5.43;;;;;;;;;;5092368;28;20587;-64
2023/05/14 00:53:00;;;;;;;9.38;5.50;;;;;;;;;;5089148;28;20028;-64
2023/05/14 00:55:28;;;;;;;8.70;5.13;;;;;;;;;;5086824;28;20021;-64
2023/05/14 00:57:56;;;;;;;5.93;4.53;;;;;;;;;;5087359;28;20035;-64
2023/05/14 01:00:23;;;;;;;5.97;4.83;;;;;;;;;;5086987;28;20032;-64
2023/05/14 01:02:49;;;;;;;10.17;5.97;;;;;;;;;;5089588;28;20435;-64
2023/05/14 01:05:16;;;;;;;9.17;6.10;;;;;;;;;;5092178;28;20024;-63
2023/05/14 01:07:58;;;;;;;7.40;5.53;;;;;;;;;;5092234;28;20032;-64
2023/05/14 01:10:28;;;;;;;18.20;5.40;;;;;;;;;;5091962;28;20414;-64
2023/05/14 01:13:09;;;;;;;11.27;5.13;;;;;;;;;;5092268;28;20032;-63
2023/05/14 01:15:37;;;;;;;8.20;4.77;;;;;;;;;;5088291;28;20548;-65
2023/05/14 01:18:08;;;;;;;5.97;4.50;;;;;;;;;;5087319;28;20584;-63
2023/05/14 01:20:35;;;;;;;9.10;4.97;;;;;;;;;;5087031;28;20382;-63
2023/05/14 01:23:02;;;;;;;14.13;5.17;;;;;;;;;;5086875;28;20111;-64
2023/05/14 01:25:29;;;;;;;6.03;4.30;;;;;;;;;;5090087;28;20063;-64
2023/05/14 01:27:56;;;;;;;7.33;4.87;;;;;;;;;;5091986;28;20048;-63
2023/05/14 01:30:26;;;;;;;16.80;4.73;;;;;;;;;;5093379;28;20099;-63
2023/05/14 01:32:56;;;;;;;7.43;4.73;;;;;;;;;;5095828;28;20020;-64
2023/05/14 01:35:25;;;;;;;13.40;4.03;;;;;;;;;;5095959;28;20478;-63
2023/05/14 01:37:53;;;;;;;7.23;4.27;;;;;;;;;;5091952;28;20039;-64
2023/05/14 01:40:19;;;;;;;5.23;4.27;;;;;;;;;;5090687;28;20110;-63
2023/05/14 01:42:46;;;;;;;5.33;4.47;;;;;;;;;;5090715;28;20028;-63
2023/05/14 01:45:13;;;;;;;6.97;4.77;;;;;;;;;;5090548;28;20031;-64
2023/05/14 01:47:40;;;;;;;7.53;4.63;;;;;;;;;;5093372;28;20043;-63
2023/05/14 01:50:07;;;;;;;9.07;4.43;;;;;;;;;;5095665;28;20028;-64
2023/05/14 01:52:34;;;;;;;10.97;5.43;;;;;;;;;;5095590;28;20024;-64
2023/05/14 01:55:01;;;;;;;9.30;4.73;;;;;;;;;;5095544;28;20081;-64
2023/05/14 01:57:28;;;;;;;7.50;4.97;;;;;;;;;;5095029;28;20099;-63
2023/05/14 01:59:54;;;;;;;8.90;5.40;;;;;;;;;;5092700;28;20020;-63
2023/05/14 02:02:21;;;;;;;5.10;4.00;;;;;;;;;;5090324;28;20028;-63
2023/05/14 02:04:48;;;;;;;12.53;4.93;;;;;;;;;;5090197;28;20082;-64
2023/05/14 02:07:15;;;;;;;7.30;4.60;;;;;;;;;;5090311;28;20470;-64
2023/05/14 02:09:42;;;;;;;9.83;5.20;;;;;;;;;;5092189;28;20048;-63
2023/05/14 02:12:10;;;;;;;5.43;4.00;;;;;;;;;;5095150;28;20055;-64
2023/05/14 02:14:37;;;;;;;11.77;4.33;;;;;;;;;;5094914;28;20107;-63
2023/05/14 02:17:04;;;;;;;7.50;4.30;;;;;;;;;;5095081;28;20039;-64
2023/05/14 02:19:31;;;;;;;12.23;4.60;;;;;;;;;;5094835;28;20097;-63
2023/05/14 02:21:59;;;;;;;5.23;3.80;;;;;;;;;;5093003;28;20024;-64
2023/05/14 02:24:26;;;;;;;6.70;4.13;;;;;;;;;;5090083;28;20069;-63
2023/05/14 02:26:53;;;;;;;6.13;4.37;;;;;;;;;;5089807;28;20483;-63
2023/05/14 02:29:20;;;;;;;6.77;4.30;;;;;;;;;;5089743;28;20136;-63
2023/05/14 02:31:47;;;;;;;8.13;4.20;;;;;;;;;;5090890;28;20452;-63
2023/05/14 02:34:15;;;;;;;6.40;4.10;;;;;;;;;;5094506;28;20471;-64
2023/05/14 02:36:41;;;;;;;6.30;4.53;;;;;;;;;;5094544;28;20023;-64
2023/05/14 02:39:08;;;;;;;4.47;3.20;;;;;;;;;;5094547;28;20030;-63
2023/05/14 02:41:35;;;;;;;5.10;3.67;;;;;;;;;;5093794;28;20440;-63
2023/05/14 02:44:02;;;;;;;7.70;4.47;;;;;;;;;;5093265;28;20036;-62
2023/05/14 02:46:28;;;;;;;3.80;2.60;;;;;;;;;;5089678;28;20024;-62
2023/05/14 02:48:55;;;;;;;3.53;2.50;;;;;;;;;;5089595;28;20048;-62
2023/05/14 02:51:22;;;;;;;5.07;3.30;;;;;;;;;;5089107;28;20024;-63
2023/05/14 02:53:49;;;;;;;14.53;4.23;;;;;;;;;;5089576;28;20027;-62
2023/05/14 02:56:15;;;;;;;11.80;3.97;;;;;;;;;;5094441;28;20026;-62
2023/05/14 02:58:42;;;;;;;3.93;2.93;;;;;;;;;;5094450;28;20016;-63
2023/05/14 03:01:09;;;;;;;15.63;4.57;;;;;;;;;;5094259;28;20050;-63
2023/05/14 03:03:37;;;;;;;7.20;3.83;;;;;;;;;;5094271;28;20020;-62
2023/05/14 03:06:04;;;;;;;6.83;4.17;;;;;;;;;;5093733;28;20020;-63
2023/05/14 03:08:30;;;;;;;15.83;3.63;;;;;;;;;;5089027;28;20024;-62
2023/05/14 03:10:57;;;;;;;7.27;3.90;;;;;;;;;;5088926;28;20493;-62
2023/05/14 03:13:24;;;;;;;7.97;4.80;;;;;;;;;;5088870;28;20023;-63
2023/05/14 03:15:53;;;;;;;4.93;4.00;;;;;;;;;;5088933;28;20494;-63
2023/05/14 03:18:20;;;;;;;5.70;3.60;;;;;;;;;;5093756;28;20352;-62
2023/05/14 03:20:47;;;;;;;6.90;3.67;;;;;;;;;;5093875;28;20049;-62
2023/05/14 03:23:14;;;;;;;6.37;3.87;;;;;;;;;;5093970;28;20467;-62
2023/05/14 03:25:41;;;;;;;11.10;3.80;;;;;;;;;;5093880;28;20470;-62
2023/05/14 03:28:08;;;;;;;7.00;3.43;;;;;;;;;;5093230;28;20031;-62
2023/05/14 03:30:35;;;;;;;5.07;3.23;;;;;;;;;;5088725;28;20024;-64
2023/05/14 03:33:02;;;;;;;3.43;2.50;;;;;;;;;;5088782;28;20051;-62
2023/05/14 03:35:28;;;;;;;6.13;3.43;;;;;;;;;;5088549;28;20016;-62
2023/05/14 03:37:58;;;;;;;19.37;3.03;;;;;;;;;;5088489;28;20023;-63
2023/05/14 03:40:25;;;;;;;3.17;2.20;;;;;;;;;;5092690;28;20032;-62
2023/05/14 03:42:51;;;;;;;5.10;3.73;;;;;;;;;;5093544;28;20016;-64
2023/05/14 03:45:18;;;;;;;5.97;3.40;;;;;;;;;;5092984;28;20026;-62
2023/05/14 03:47:45;;;;;;;19.00;5.10;;;;;;;;;;5093510;28;20095;-63
2023/05/14 03:50:12;;;;;;;7.07;4.53;;;;;;;;;;5093292;28;20051;-62
2023/05/14 03:52:39;;;;;;;10.03;4.77;;;;;;;;;;5088782;28;20452;-63
2023/05/14 03:55:06;;;;;;;6.10;3.77;;;;;;;;;;5088252;28;20032;-62
2023/05/14 03:57:33;;;;;;;6.30;4.80;;;;;;;;;;5088196;28;20028;-61
2023/05/14 03:59:59;;;;;;;6.43;4.70;;;;;;;;;;5088029;28;20028;-62
2023/05/14 04:02:26;;;;;;;8.07;4.80;;;;;;;;;;5091478;28;20031;-62
2023/05/14 04:04:53;;;;;;;8.57;5.10;;;;;;;;;;5092750;28;20028;-62
2023/05/14 04:07:19;;;;;;;9.07;5.20;;;;;;;;;;5092959;28;20117;-62
2023/05/14 04:09:46;;;;;;;6.87;5.07;;;;;;;;;;5093139;28;20024;-62
2023/05/14 04:12:13;;;;;;;11.43;5.97;;;;;;;;;;5092957;28;20386;-62
2023/05/14 04:14:40;;;;;;;9.70;6.47;;;;;;;;;;5089259;28;20125;-62
2023/05/14 04:17:06;;;;;;;9.27;5.70;;;;;;;;;;5088036;28;20524;-62
2023/05/14 04:19:33;;;;;;;9.40;5.63;;;;;;;;;;5087605;28;20035;-62
2023/05/14 04:22:00;;;;;;;7.60;5.33;;;;;;;;;;5087375;28;20296;-62
2023/05/14 04:24:26;;;;;;;6.30;5.20;;;;;;;;;;5090439;28;20375;-62
2023/05/14 04:26:53;;;;;;;7.33;5.10;;;;;;;;;;5092914;28;20032;-62
2023/05/14 04:29:20;;;;;;;9.07;5.47;;;;;;;;;;5092634;28;20044;-62
2023/05/14 04:31:47;;;;;;;13.03;5.67;;;;;;;;;;5092710;28;20077;-61
2023/05/14 04:34:13;;;;;;;5.03;3.73;;;;;;;;;;5092488;28;20080;-62
2023/05/14 04:36:40;;;;;;;6.00;4.10;;;;;;;;;;5089822;28;20024;-61
2023/05/14 04:39:08;;;;;;;6.27;4.57;;;;;;;;;;5087207;28;20433;-61
2023/05/14 04:41:35;;;;;;;6.83;4.50;;;;;;;;;;5087158;28;20047;-62
2023/05/14 04:44:03;;;;;;;6.63;4.47;;;;;;;;;;5087453;28;21508;-61
2023/05/14 04:46:29;;;;;;;5.03;4.20;;;;;;;;;;5089517;28;20023;-62
2023/05/14 04:48:56;;;;;;;6.37;4.53;;;;;;;;;;5092571;28;20020;-61
2023/05/14 04:51:23;;;;;;;12.83;3.43;;;;;;;;;;5092375;28;20050;-62
2023/05/14 04:53:50;;;;;;;7.23;4.37;;;;;;;;;;5092464;28;20032;-62
2023/05/14 04:56:17;;;;;;;5.17;3.77;;;;;;;;;;5092587;28;20472;-61
2023/05/14 04:58:43;;;;;;;5.73;3.77;;;;;;;;;;5089625;28;20478;-62
2023/05/14 05:01:10;;;;;;;6.73;3.90;;;;;;;;;;5087384;28;20606;-62
2023/05/14 05:03:37;;;;;;;5.97;3.60;;;;;;;;;;5087199;28;20073;-62
2023/05/14 05:06:04;;;;;;;4.40;3.30;;;;;;;;;;5089891;28;20100;-62
2023/05/14 05:08:30;;;;;;;15.60;3.03;;;;;;;;;;5092794;28;20391;-62
2023/05/14 05:10:57;;;;;;;5.67;4.00;;;;;;;;;;5096416;28;20020;-62
2023/05/14 05:13:24;;;;;;;17.20;4.17;;;;;;;;;;5096176;28;20518;-62
2023/05/14 05:15:51;;;;;;;5.87;3.60;;;;;;;;;;5096197;28;20076;-62
2023/05/14 05:18:18;;;;;;;6.30;3.80;;;;;;;;;;5096517;28;20531;-62
2023/05/14 05:20:44;;;;;;;4.53;3.53;;;;;;;;;;5094655;28;20024;-62
2023/05/14 05:23:11;;;;;;;4.27;3.03;;;;;;;;;;5091281;28;20491;-62
2023/05/14 05:25:38;;;;;;;3.30;2.77;;;;;;;;;;5091207;28;20060;-62
2023/05/14 05:28:07;;;;;;;6.20;3.17;;;;;;;;;;5091077;28;20023;-62
2023/05/14 05:30:34;;;;;;;7.10;2.60;;;;;;;;;;5091446;28;20508;-62
2023/05/14 05:33:00;;;;;;;3.30;2.63;;;;;;;;;;5095884;28;20048;-62
2023/05/14 05:35:27;;;;;;;7.40;4.10;;;;;;;;;;5095953;28;20024;-62
2023/05/14 05:37:54;;;;;;;5.17;3.40;;;;;;;;;;5095976;28;20020;-63
2023/05/14 05:40:21;;;;;;;3.33;2.73;;;;;;;;;;5095824;28;20032;-62
2023/05/14 05:42:48;;;;;;;3.80;3.07;;;;;;;;;;5094895;28;20444;-62
2023/05/14 05:45:14;;;;;;;4.37;3.33;;;;;;;;;;5090793;28;20020;-62
2023/05/14 05:47:41;;;;;;;6.03;4.33;;;;;;;;;;5090685;28;20115;-62
2023/05/14 05:50:08;;;;;;;5.43;3.93;;;;;;;;;;5090668;28;20055;-62
2023/05/14 05:52:35;;;;;;;6.07;3.30;;;;;;;;;;5090656;28;20180;-62
2023/05/14 05:55:02;;;;;;;4.37;2.67;;;;;;;;;;5095547;28;20474;-62
2023/05/14 05:57:29;;;;;;;4.93;3.40;;;;;;;;;;5095647;28;20020;-63
2023/05/14 05:59:55;;;;;;;4.70;3.27;;;;;;;;;;5095387;28;20034;-63
2023/05/14 06:02:23;;;;;;;4.77;3.67;;;;;;;;;;5095381;28;20107;-62
2023/05/14 06:04:51;;;;;;;3.53;2.77;;;;;;;;;;5095225;28;20133;-62
2023/05/14 06:07:18;;;;;;;4.00;3.03;;;;;;;;;;5089851;28;20045;-63
2023/05/14 06:09:45;;;;;;;6.77;4.03;;;;;;;;;;5090233;28;20077;-63
2023/05/14 06:12:12;;;;;;;3.93;2.97;;;;;;;;;;5090316;28;20024;-62
2023/05/14 06:14:38;;;;;;;5.40;3.53;;;;;;;;;;5090328;28;20016;-63
2023/05/14 06:17:08;;;;;;;3.20;2.90;;;;;;;;;;5094586;28;20136;-63
2023/05/14 06:19:34;;;;;;;5.67;3.60;;;;;;;;;;5095116;28;20032;-63
2023/05/14 06:22:01;;;;;;;3.83;2.73;;;;;;;;;;5094869;28;20088;-63
2023/05/14 06:24:28;;;;;;;4.17;3.33;;;;;;;;;;5094842;28;20023;-63
2023/05/14 06:26:55;;;;;;;3.73;3.07;;;;;;;;;;5094911;28;20032;-62
2023/05/14 06:29:22;;;;;;;5.20;3.07;;;;;;;;;;5090247;28;20383;-62
2023/05/14 06:31:48;;;;;;;6.40;3.40;;;;;;;;;;5089896;28;20027;-63
2023/05/14 06:34:15;;;;;;;4.13;3.13;;;;;;;;;;5089898;28;20324;-63
2023/05/14 06:36:42;;;;;;;3.87;3.10;;;;;;;;;;5089969;28;20024;-63
2023/05/14 06:39:09;;;;;;;4.03;3.13;;;;;;;;;;5093194;28;20028;-63
2023/05/14 06:41:35;;;;;;;5.10;3.13;;;;;;;;;;5094860;28;20020;-63
2023/05/14 06:44:02;;;;;;;4.07;3.30;;;;;;;;;;5094452;28;20048;-62
2023/05/14 06:46:29;;;;;;;3.70;2.80;;;;;;;;;;5094758;28;20032;-63
2023/05/14 06:48:56;;;;;;;3.60;2.70;;;;;;;;;;5094690;28;20026;-63
2023/05/14 06:51:22;;;;;;;5.73;3.80;;;;;;;;;;5090426;28;20050;-64
2023/05/14 06:53:50;;;;;;;6.37;3.47;;;;;;;;;;5089730;28;20382;-63
2023/05/14 06:56:16;;;;;;;5.83;4.07;;;;;;;;;;5089258;28;20474;-63
2023/05/14 06:58:43;;;;;;;5.87;3.63;;;;;;;;;;5089243;28;20078;-62
2023/05/14 07:01:10;;;;;;;7.40;4.10;;;;;;;;;;5092141;28;20020;-62
2023/05/14 07:03:37;;;;;;;6.33;3.90;;;;;;;;;;5094390;28;20020;-62
2023/05/14 07:06:03;;;;;;;4.17;2.93;;;;;;;;;;5094253;28;20023;-63
2023/05/14 07:08:30;;;;;;;4.47;3.53;;;;;;;;;;5094437;28;20020;-63
2023/05/14 07:10:57;;;;;;;6.83;3.60;;;;;;;;;;5094112;28;20012;-63
2023/05/14 07:13:25;;;;;;;4.63;3.37;;;;;;;;;;5090302;28;20471;-62
2023/05/14 07:15:54;;;;;;;5.27;3.57;;;;;;;;;;5089049;28;20467;-62
2023/05/14 07:18:22;;;;;;;15.47;3.50;;;;;;;;;;5088539;28;20249;-63
2023/05/14 07:20:48;;;;;;;4.77;3.47;;;;;;;;;;5088772;28;20111;-63
2023/05/14 07:23:15;;;;;;;4.93;3.13;;;;;;;;;;5091522;28;20024;-63
2023/05/14 07:25:42;;;;;;;6.07;3.80;;;;;;;;;;5093880;28;20028;-63
2023/05/14 07:28:09;;;;;;;4.30;3.17;;;;;;;;;;5093353;28;20479;-63
2023/05/14 07:30:35;;;;;;;5.80;4.13;;;;;;;;;;5093497;28;20023;-63
2023/05/14 07:33:02;;;;;;;4.53;3.63;;;;;;;;;;5093878;28;20016;-63
2023/05/14 07:35:29;;;;;;;5.07;3.10;;;;;;;;;;5090379;28;20032;-63
2023/05/14 07:37:55;;;;;;;4.00;3.33;;;;;;;;;;5088443;28;20020;-63
2023/05/14 07:40:23;;;;;;;6.70;4.60;;;;;;;;;;5088259;28;20510;-64
2023/05/14 07:42:50;;;;;;;4.37;3.57;;;;;;;;;;5088393;28;20032;-63
2023/05/14 07:45:17;;;;;;;9.00;4.20;;;;;;;;;;5090587;28;20016;-63
2023/05/14 07:47:44;;;;;;;4.70;3.77;;;;;;;;;;5093298;28;20474;-63
2023/05/14 07:50:11;;;;;;;4.87;3.53;;;;;;;;;;5093454;28;20024;-62
2023/05/14 07:52:38;;;;;;;5.17;3.77;;;;;;;;;;5092966;28;20051;-63
2023/05/14 07:55:05;;;;;;;4.87;3.60;;;;;;;;;;5093459;28;20028;-62
2023/05/14 07:57:32;;;;;;;5.47;3.37;;;;;;;;;;5090827;28;20040;-63
2023/05/14 07:59:59;;;;;;;4.37;3.70;;;;;;;;;;5088110;28;20044;-62
2023/05/14 08:02:25;;;;;;;6.40;4.13;;;;;;;;;;5088192;28;20024;-62
2023/05/14 08:04:52;;;;;;;6.50;4.13;;;;;;;;;;5087978;28;20028;-63
2023/05/14 08:07:19;;;;;;;6.00;3.93;;;;;;;;;;5089669;28;20095;-63
2023/05/14 08:09:46;;;;;;;4.97;3.60;;;;;;;;;;5092616;28;20029;-63
2023/05/14 08:12:13;;;;;;;4.27;3.33;;;;;;;;;;5093090;28;20086;-62
2023/05/14 08:14:40;;;;;;;4.90;3.57;;;;;;;;;;5092918;28;20144;-62
2023/05/14 08:17:06;;;;;;;4.90;3.60;;;;;;;;;;5093119;28;20542;-62
2023/05/14 08:19:33;;;;;;;7.30;4.47;;;;;;;;;;5090990;28;20438;-63
2023/05/14 08:22:00;;;;;;;7.43;3.83;;;;;;;;;;5087849;28;20032;-62
2023/05/14 08:24:27;;;;;;;4.77;3.90;;;;;;;;;;5087786;28;20024;-62
2023/05/14 08:26:53;;;;;;;6.13;4.23;;;;;;;;;;5087534;28;20360;-63
2023/05/14 08:29:20;;;;;;;4.57;3.63;;;;;;;;;;5088831;28;20097;-63
2023/05/14 08:31:48;;;;;;;5.43;4.17;;;;;;;;;;5092785;28;20096;-63
2023/05/14 08:34:14;;;;;;;5.47;3.43;;;;;;;;;;5092734;28;20493;-62
2023/05/14 08:36:41;;;;;;;7.57;3.63;;;;;;;;;;5092675;28;20016;-63
2023/05/14 08:39:08;;;;;;;4.33;3.70;;;;;;;;;;5091867;28;20028;-63
2023/05/14 08:41:36;;;;;;;5.13;3.77;;;;;;;;;;5090815;28;20098;-62
2023/05/14 08:44:08;;;;;;;4.40;3.37;;;;;;;;;;5087265;28;20047;-63
2023/05/14 08:46:37;;;;;;;6.77;4.40;;;;;;;;;;5087507;28;20053;-63
2023/05/14 08:49:09;;;;;;;6.27;4.30;;;;;;;;;;5087464;28;20562;-63
2023/05/14 08:51:36;;;;;;;6.03;4.17;;;;;;;;;;5088467;28;20028;-63
2023/05/14 08:54:03;;;;;;;5.97;4.10;;;;;;;;;;5092448;28;20474;-62
2023/05/14 08:56:32;;;;;;;3.73;3.03;;;;;;;;;;5092290;28;20028;-63
2023/05/14 08:58:59;;;;;;;6.23;4.03;;;;;;;;;;5091982;28;20070;-63
2023/05/14 09:01:26;;;;;;;4.67;3.60;;;;;;;;;;5092602;28;20028;-62
2023/05/14 09:03:54;;;;;;;6.77;4.33;;;;;;;;;;5091011;28;20367;-63
2023/05/14 09:06:21;;;;;;;4.33;3.20;;;;;;;;;;5087362;28;20364;-62
2023/05/14 09:08:48;;;;;;;5.13;3.40;;;;;;;;;;5087242;28;20027;-63
2023/05/14 09:11:14;;;;;;;5.07;3.57;;;;;;;;;;5087244;28;20107;-63
2023/05/14 09:13:41;;;;;;;8.53;4.10;;;;;;;;;;5087632;28;20036;-63
2023/05/14 09:16:08;;;;;;;6.33;4.40;;;;;;;;;;5091966;28;20471;-63
2023/05/14 09:18:35;;;;;;;7.20;4.13;;;;;;;;;;5092338;28;20020;-62
2023/05/14 09:21:02;;;;;;;4.23;3.23;;;;;;;;;;5092146;28;20383;-63
2023/05/14 09:23:33;;;;;;;4.63;3.87;;;;;;;;;;5092282;28;20028;-63
2023/05/14 09:26:04;;;;;;;7.53;4.33;;;;;;;;;;5091222;28;20016;-63
2023/05/14 09:28:31;;;;;;;5.53;3.93;;;;;;;;;;5087095;28;20016;-63
2023/05/14 09:30:57;;;;;;;4.93;4.07;;;;;;;;;;5086509;28;20024;-62
2023/05/14 09:33:27;;;;;;;6.43;3.93;;;;;;;;;;5087009;28;20028;-63
2023/05/14 09:36:01;;;;;;;3.80;2.73;;;;;;;;;;5087238;28;20024;-62
2023/05/14 09:38:28;;;;;;;4.90;3.70;;;;;;;;;;5091976;28;20039;-63
2023/05/14 09:40:55;;;;;;;5.87;4.53;;;;;;;;;;5091954;28;20036;-62
2023/05/14 09:43:22;;;;;;;4.90;3.37;;;;;;;;;;5092024;28;20150;-63
2023/05/14 09:45:49;;;;;;;6.07;4.40;;;;;;;;;;5091616;28;20028;-63
2023/05/14 09:48:16;;;;;;;4.40;3.50;;;;;;;;;;5091099;28;20043;-63
2023/05/14 09:50:43;;;;;;;3.20;2.80;;;;;;;;;;5087019;28;20111;-63
2023/05/14 09:53:11;;;;;;;4.47;3.80;;;;;;;;;;5090567;28;20240;-62
2023/05/14 09:55:38;;;;;;;4.60;3.83;;;;;;;;;;5090576;28;20531;-63
2023/05/14 09:58:05;;;;;;;17.57;4.60;;;;;;;;;;5090663;28;20045;-63
2023/05/14 10:00:32;;;;;;;6.60;4.10;;;;;;;;;;5095499;28;20458;-63
2023/05/14 10:03:00;;;;;;;6.30;3.10;;;;;;;;;;5095175;28;20028;-63
2023/05/14 10:05:27;;;;;;;3.93;3.30;;;;;;;;;;5095426;28;20028;-63
2023/05/14 10:07:56;;;;;;;3.63;3.03;;;;;;;;;;5095364;28;20034;-63
2023/05/14 10:10:26;;;;;;;5.97;3.77;;;;;;;;;;5094862;28;20020;-62
2023/05/14 10:12:56;;;;;;;5.00;4.20;;;;;;;;;;5090130;28;20035;-63
2023/05/14 10:15:29;;;;;;;9.23;4.37;;;;;;;;;;5090233;28;20017;-62
2023/05/14 10:17:58;;;;;;;5.37;3.57;;;;;;;;;;5090250;28;20020;-63
2023/05/14 10:20:27;;;;;;;8.67;5.37;;;;;;;;;;5089917;28;20107;-63
2023/05/14 10:22:54;;;;;;;7.40;4.47;;;;;;;;;;5095092;28;20493;-63
2023/05/14 10:25:21;;;;;;;4.93;3.47;;;;;;;;;;5094933;28;20034;-63
2023/05/14 10:27:48;;;;;;;4.13;3.57;;;;;;;;;;5094957;28;20013;-63
2023/05/14 10:30:14;;;;;;;6.30;4.30;;;;;;;;;;5094944;28;20027;-63
2023/05/14 10:32:42;;;;;;;5.50;3.70;;;;;;;;;;5094327;28;20052;-63
2023/05/14 10:35:21;;;;;;;8.07;4.77;;;;;;;;;;5089680;28;20027;-63
2023/05/14 10:37:50;;;;;;;6.37;3.47;;;;;;;;;;5089630;28;20361;-62
2023/05/14 10:40:18;;;;;;;6.37;3.97;;;;;;;;;;5089536;28;20046;-63
2023/05/14 10:42:46;;;;;;;6.93;3.43;;;;;;;;;;5089982;28;20048;-64
2023/05/14 10:45:14;;;;;;;4.37;3.70;;;;;;;;;;5094361;28;20026;-62
2023/05/14 10:47:44;;;;;;;3.47;2.77;;;;;;;;;;5094562;28;20020;-62
2023/05/14 10:50:12;;;;;;;5.50;3.97;;;;;;;;;;5094698;28;20028;-63
2023/05/14 10:52:43;;;;;;;4.30;3.57;;;;;;;;;;5094569;28;20033;-63
2023/05/14 10:55:13;;;;;;;4.17;3.00;;;;;;;;;;5093477;28;20036;-62
2023/05/14 10:57:47;;;;;;;6.40;4.73;;;;;;;;;;5089357;28;20035;-62
2023/05/14 11:00:14;;;;;;;5.20;4.20;;;;;;;;;;5089291;28;20405;-62
2023/05/14 11:02:42;;;;;;;6.13;4.57;;;;;;;;;;5088395;28;20153;-63
2023/05/14 11:05:15;;;;;;;5.77;4.50;;;;;;;;;;5089595;28;20027;-62
2023/05/14 11:07:46;;;;;;;9.77;5.20;;;;;;;;;;5094377;28;20012;-62
2023/05/14 11:10:14;;;;;;;6.20;4.50;;;;;;;;;;5094088;28;20020;-62
2023/05/14 11:12:42;;;;;;;4.70;3.77;;;;;;;;;;5094173;28;20016;-62
2023/05/14 11:15:10;;;;;;;5.83;3.63;;;;;;;;;;5094304;28;20031;-62
2023/05/14 11:17:37;;;;;;;5.80;4.50;;;;;;;;;;5093006;28;20020;-63
2023/05/14 11:20:05;;;;;;;6.40;4.87;;;;;;;;;;5088790;28;20032;-63
2023/05/14 11:22:32;;;;;;;6.17;4.83;;;;;;;;;;5088748;28;20047;-63
2023/05/14 11:24:58;;;;;;;9.73;4.47;;;;;;;;;;5088831;28;20523;-62
2023/05/14 11:27:25;;;;;;;4.90;3.83;;;;;;;;;;5088484;28;20467;-62
2023/05/14 11:29:54;;;;;;;4.13;3.20;;;;;;;;;;5093716;28;20035;-63
2023/05/14 11:32:20;;;;;;;4.73;3.87;;;;;;;;;;5093840;28;20471;-63
2023/05/14 11:34:47;;;;;;;4.73;3.80;;;;;;;;;;5093642;28;20091;-62
2023/05/14 11:37:15;;;;;;;6.90;5.50;;;;;;;;;;5093793;28;20103;-62
2023/05/14 11:39:49;;;;;;;5.50;4.60;;;;;;;;;;5092879;28;20036;-62
2023/05/14 11:42:17;;;;;;;6.30;3.67;;;;;;;;;;5088034;28;20016;-63
2023/05/14 11:44:44;;;;;;;7.90;4.10;;;;;;;;;;5088603;28;20035;-63
2023/05/14 11:47:11;;;;;;;5.63;4.03;;;;;;;;;;5088213;28;20054;-63
2023/05/14 11:49:38;;;;;;;6.13;4.30;;;;;;;;;;5088257;28;20028;-63
2023/05/14 11:52:06;;;;;;;5.17;4.13;;;;;;;;;;5093553;28;20028;-63
2023/05/14 11:54:33;;;;;;;5.63;4.13;;;;;;;;;;5093243;28;20082;-63
2023/05/14 11:57:01;;;;;;;4.10;3.23;;;;;;;;;;5093055;28;20024;-63
2023/05/14 11:59:29;;;;;;;4.27;3.27;;;;;;;;;;5093182;28;20026;-62
2023/05/14 12:01:55;;;;;;;9.50;4.67;;;;;;;;;;5092702;28;20360;-63
2023/05/14 12:04:22;;;;;;;8.80;4.67;;;;;;;;;;5087817;28;20028;-62
2023/05/14 12:06:50;;;;;;;5.10;4.10;;;;;;;;;;5088038;28;20046;-62
2023/05/14 12:09:17;;;;;;;3.90;3.50;;;;;;;;;;5088083;28;20024;-62
2023/05/14 12:11:47;;;;;;;5.33;4.57;;;;;;;;;;5087905;28;20028;-62
2023/05/14 12:14:18;;;;;;;5.77;4.23;;;;;;;;;;5092342;28;20050;-63
2023/05/14 12:16:45;;;;;;;5.07;4.30;;;;;;;;;;5093003;28;20580;-63
2023/05/14 12:19:14;;;;;;;6.60;3.73;;;;;;;;;;5092731;28;20124;-63
2023/05/14 12:21:43;;;;;;;8.77;4.97;;;;;;;;;;5092660;28;20471;-62
2023/05/14 12:24:19;;;;;;;3.73;3.33;;;;;;;;;;5092540;28;20388;-62
2023/05/14 12:26:46;;;;;;;5.50;4.43;;;;;;;;;;5087425;28;20047;-62
2023/05/14 12:29:14;;;;;;;5.50;3.73;;;;;;;;;;5087629;28;20020;-63
2023/05/14 12:31:50;;;;;;;6.57;4.80;;;;;;;;;;5087853;28;20032;-63
2023/05/14 12:34:17;;;;;;;4.83;3.50;;;;;;;;;;5088156;28;20020;-62
2023/05/14 12:36:44;;;;;;;6.13;4.40;;;;;;;;;;5092502;28;20065;-63
2023/05/14 12:39:11;;;;;;;3.47;3.00;;;;;;;;;;5092262;28;20024;-62
2023/05/14 12:41:38;;;;;;;7.33;4.50;;;;;;;;;;5092085;28;20027;-62
2023/05/14 12:44:05;;;;;;;6.17;4.00;;;;;;;;;;5092650;28;20513;-62
2023/05/14 12:46:33;;;;;;;5.83;4.77;;;;;;;;;;5091919;28;20020;-62
2023/05/14 12:48:59;;;;;;;8.93;4.87;;;;;;;;;;5087219;28;20081;-63
2023/05/14 12:51:26;;;;;;;7.17;5.43;;;;;;;;;;5087432;28;20026;-62
2023/05/14 12:53:53;;;;;;;7.87;5.97;;;;;;;;;;5087297;28;20490;-62
2023/05/14 12:56:26;;;;;;;7.23;5.10;;;;;;;;;;5087253;28;20078;-62
2023/05/14 12:58:54;;;;;;;5.83;5.23;;;;;;;;;;5092243;28;20107;-62
2023/05/14 13:01:20;;;;;;;12.07;6.63;;;;;;;;;;5092275;28;20016;-62
2023/05/14 13:03:47;;;;;;;6.50;5.10;;;;;;;;;;5092437;28;20020;-63
2023/05/14 13:06:14;;;;;;;8.60;5.13;;;;;;;;;;5092237;28;20027;-62
2023/05/14 13:08:41;;;;;;;5.53;4.43;;;;;;;;;;5091919;28;20073;-62
2023/05/14 13:11:08;;;;;;;6.63;4.53;;;;;;;;;;5086973;28;20028;-63
2023/05/14 13:13:34;;;;;;;5.67;5.03;;;;;;;;;;5086698;28;20538;-63
2023/05/14 13:16:02;;;;;;;7.37;5.33;;;;;;;;;;5087344;28;20028;-63
2023/05/14 13:18:29;;;;;;;8.00;5.20;;;;;;;;;;5086956;28;20016;-63
2023/05/14 13:20:55;;;;;;;5.37;4.20;;;;;;;;;;5091818;28;20024;-63
2023/05/14 13:23:22;;;;;;;6.17;5.13;;;;;;;;;;5092207;28;20442;-63
2023/05/14 13:25:49;;;;;;;4.87;3.83;;;;;;;;;;5092427;28;20028;-63
2023/05/14 13:28:16;;;;;;;7.10;4.67;;;;;;;;;;5096137;28;20103;-62
2023/05/14 13:31:02;;;;;;;6.10;4.13;;;;;;;;;;5095486;28;20396;-63
2023/05/14 13:33:29;;;;;;;6.90;5.30;;;;;;;;;;5090785;28;20411;-63
2023/05/14 13:35:56;;;;;;;7.97;5.30;;;;;;;;;;5090916;28;20017;-62
2023/05/14 13:38:23;;;;;;;9.43;4.63;;;;;;;;;;5090757;28;20028;-63
2023/05/14 13:40:49;;;;;;;6.10;4.93;;;;;;;;;;5090607;28;20488;-63
2023/05/14 13:43:16;;;;;;;4.93;3.87;;;;;;;;;;5095659;28;20382;-62
2023/05/14 13:45:43;;;;;;;5.40;4.17;;;;;;;;;;5095609;28;20032;-63
2023/05/14 13:48:09;;;;;;;8.43;5.27;;;;;;;;;;5095702;28;20080;-63
2023/05/14 13:50:36;;;;;;;5.03;4.03;;;;;;;;;;5095739;28;20099;-63
2023/05/14 13:53:03;;;;;;;6.50;4.50;;;;;;;;;;5095731;28;20174;-63
2023/05/14 13:55:30;;;;;;;6.57;4.33;;;;;;;;;;5090544;28;20352;-63
2023/05/14 13:57:58;;;;;;;4.67;3.80;;;;;;;;;;5090220;28;20402;-63
2023/05/14 14:00:26;;;;;;;23.43;4.63;;;;;;;;;;5090428;28;20059;-63
2023/05/14 14:02:52;;;;;;;6.13;4.83;;;;;;;;;;5090134;28;20024;-63
2023/05/14 14:05:19;;;;;;;6.70;4.83;;;;;;;;;;5094825;28;20103;-63
2023/05/14 14:07:46;;;;;;;5.73;4.13;;;;;;;;;;5095395;28;20485;-63
2023/05/14 14:10:13;;;;;;;5.47;3.93;;;;;;;;;;5095289;28;20024;-63
2023/05/14 14:12:39;;;;;;;5.23;3.27;;;;;;;;;;5095215;28;20033;-63
2023/05/14 14:15:06;;;;;;;4.33;3.20;;;;;;;;;;5094605;28;20048;-63
2023/05/14 14:17:33;;;;;;;7.80;4.30;;;;;;;;;;5090368;28;20334;-63
2023/05/14 14:20:00;;;;;;;6.83;5.17;;;;;;;;;;5089716;28;20583;-63
2023/05/14 14:22:27;;;;;;;3.83;3.10;;;;;;;;;;5090125;28;20024;-63
2023/05/14 14:24:53;;;;;;;5.83;3.50;;;;;;;;;;5089912;28;20024;-63
2023/05/14 14:27:21;;;;;;;4.33;3.63;;;;;;;;;;5093900;28;20371;-64
2023/05/14 14:29:47;;;;;;;7.27;3.73;;;;;;;;;;5095063;28;20077;-63
2023/05/14 14:32:14;;;;;;;4.97;3.83;;;;;;;;;;5094271;28;20020;-63
2023/05/14 14:34:41;;;;;;;4.63;3.17;;;;;;;;;;5094968;28;20028;-63
2023/05/14 14:37:08;;;;;;;7.83;3.90;;;;;;;;;;5094013;28;20020;-63
2023/05/14 14:39:34;;;;;;;4.43;3.37;;;;;;;;;;5089737;28;20036;-63
2023/05/14 14:42:01;;;;;;;5.20;3.50;;;;;;;;;;5089673;28;20032;-64